Giatto, West Virginia
Current Conditions -  °F | °C
As of 2:52 AM on Saturday 29 Nov 2014 (Local Time) from KBLF Reporting Station
Clear Clear  
Wind Chill: 26°   Ceiling: Unl
Heat Index: 26°   Visibility: 10mi
Dew Point: 15°   Wind: 3mph
Humidity: 63%   Direction: 110°ESE
Pressure: 30.15"   Gusts: NA
Location:  37.4544°N, 81.2833°W
Report Text: KBLF 290752Z AUTO 11003KT 10SM CLR M03/M09 A3015 RMK AO2 SLP233 T10331094 $
Loading
Personal Weather Stations






























Interactive Weather Map New forecast layout! Learn more

10-Day Weather Forecast

Advertisements
Track Severe Weather on mobile